createdAt,value
2017-06-08T00:00:23.043Z,0
2017-06-08T00:01:03.526Z,0
2017-06-08T00:01:44.005Z,0
2017-06-08T00:02:24.503Z,0
2017-06-08T00:03:04.982Z,0
2017-06-08T00:03:45.474Z,0
2017-06-08T00:04:25.971Z,0
2017-06-08T00:05:06.458Z,0
2017-06-08T00:05:46.941Z,0
2017-06-08T00:06:27.426Z,0
2017-06-08T00:07:07.919Z,0
2017-06-08T00:07:48.416Z,0
2017-06-08T00:08:28.895Z,0
2017-06-08T00:09:09.410Z,0
2017-06-08T00:09:49.899Z,0
2017-06-08T00:10:30.377Z,0
2017-06-08T00:11:10.874Z,0
2017-06-08T00:11:51.355Z,0
2017-06-08T00:12:31.837Z,0
2017-06-08T00:13:12.334Z,0
2017-06-08T00:13:52.811Z,0
2017-06-08T00:14:33.301Z,0
2017-06-08T00:15:13.777Z,0
2017-06-08T00:15:54.281Z,0
2017-06-08T00:16:34.766Z,0
2017-06-08T00:17:15.251Z,0
2017-06-08T00:17:55.722Z,0
2017-06-08T00:18:36.255Z,0
2017-06-08T00:19:16.689Z,0
2017-06-08T00:19:57.177Z,0
2017-06-08T00:20:37.672Z,0
2017-06-08T00:22:35.285Z,0
2017-06-08T00:23:15.788Z,0
2017-06-08T00:23:56.239Z,0
2017-06-08T00:24:36.730Z,0
2017-06-08T00:25:17.217Z,0
2017-06-08T00:25:57.689Z,0
2017-06-08T00:26:38.179Z,0
2017-06-08T00:27:18.666Z,0
2017-06-08T00:27:59.152Z,0
2017-06-08T00:28:39.630Z,0
2017-06-08T00:29:20.115Z,0
2017-06-08T00:30:00.610Z,0
2017-06-08T00:30:41.118Z,0
2017-06-08T00:31:21.570Z,0
2017-06-08T00:32:02.058Z,0
2017-06-08T00:32:42.569Z,0
2017-06-08T00:33:23.040Z,0
2017-06-08T00:34:03.524Z,0
2017-06-08T00:34:44.025Z,0
2017-06-08T00:35:24.497Z,0
2017-06-08T00:36:04.985Z,0
2017-06-08T00:36:45.483Z,0
2017-06-08T00:37:25.979Z,0
2017-06-08T00:38:06.471Z,0
2017-06-08T00:38:46.931Z,0
2017-06-08T00:39:27.409Z,0
2017-06-08T00:40:07.904Z,0
2017-06-08T00:40:48.381Z,0
2017-06-08T00:41:28.864Z,0
2017-06-08T00:42:09.354Z,0
2017-06-08T00:42:49.850Z,0
2017-06-08T00:43:30.856Z,0
2017-06-08T00:44:11.348Z,0
2017-06-08T00:44:51.856Z,0
2017-06-08T00:45:32.320Z,0
2017-06-08T00:46:12.800Z,0
2017-06-08T00:46:53.287Z,0
2017-06-08T00:47:33.772Z,0
2017-06-08T00:48:14.263Z,0
2017-06-08T00:48:54.740Z,0
2017-06-08T00:49:35.224Z,0
2017-06-08T00:50:15.710Z,0
2017-06-08T00:50:56.217Z,0
2017-06-08T00:51:36.662Z,0
2017-06-08T00:52:17.156Z,0
2017-06-08T00:52:57.651Z,0
2017-06-08T00:53:38.130Z,0
2017-06-08T00:54:18.613Z,0
2017-06-08T00:54:59.096Z,0
2017-06-08T00:55:39.586Z,0
2017-06-08T00:56:20.074Z,0
2017-06-08T00:57:00.562Z,0
2017-06-08T00:57:41.055Z,0
2017-06-08T00:58:22.199Z,0
2017-06-08T00:59:02.686Z,0
2017-06-08T00:59:43.187Z,0
2017-06-08T01:00:23.661Z,0
2017-06-08T01:01:04.168Z,0
2017-06-08T01:01:44.664Z,0
2017-06-08T01:02:25.128Z,0
2017-06-08T01:03:05.597Z,0
2017-06-08T01:03:46.100Z,0
2017-06-08T01:04:26.588Z,0
2017-06-08T01:05:07.080Z,0
2017-06-08T01:05:47.573Z,0
2017-06-08T01:06:28.050Z,0
2017-06-08T01:07:08.559Z,0
2017-06-08T01:07:49.013Z,0
2017-06-08T01:08:29.580Z,0
2017-06-08T01:09:10.039Z,0
2017-06-08T01:09:50.540Z,0
2017-06-08T01:10:31.015Z,0
2017-06-08T01:11:11.486Z,0
2017-06-08T01:11:51.980Z,0
2017-06-08T01:12:32.472Z,0
2017-06-08T01:13:12.964Z,0
2017-06-08T01:13:53.450Z,0
2017-06-08T01:14:33.938Z,0
2017-06-08T01:15:14.423Z,0
2017-06-08T01:15:54.907Z,0
2017-06-08T01:16:35.401Z,0
2017-06-08T01:17:15.888Z,0
2017-06-08T01:17:56.375Z,0
2017-06-08T01:18:36.853Z,0
2017-06-08T01:19:17.358Z,0
2017-06-08T01:19:57.845Z,0
2017-06-08T01:20:38.345Z,0
2017-06-08T01:21:18.838Z,0
2017-06-08T01:21:59.305Z,0
2017-06-08T01:22:39.793Z,0
2017-06-08T01:23:20.292Z,0
2017-06-08T01:24:00.790Z,0
2017-06-08T01:24:41.248Z,0
2017-06-08T01:25:21.735Z,0
2017-06-08T01:26:02.242Z,0
2017-06-08T01:26:42.714Z,0
2017-06-08T01:27:23.185Z,0
2017-06-08T01:28:03.667Z,0
2017-06-08T01:28:44.151Z,0
2017-06-08T01:29:24.648Z,0
2017-06-08T01:30:05.121Z,0
2017-06-08T01:30:45.597Z,0
2017-06-08T01:31:26.089Z,0
2017-06-08T01:32:06.585Z,0
2017-06-08T01:32:47.059Z,0
2017-06-08T01:33:27.531Z,0
2017-06-08T01:34:08.036Z,0
2017-06-08T01:34:48.517Z,0
2017-06-08T01:35:29.011Z,0
2017-06-08T01:36:09.493Z,0
2017-06-08T01:36:49.991Z,0
2017-06-08T01:37:30.477Z,0
2017-06-08T01:38:10.952Z,0
2017-06-08T01:38:51.433Z,0
2017-06-08T01:39:31.942Z,0
2017-06-08T01:40:12.406Z,0
2017-06-08T01:40:52.894Z,0
2017-06-08T01:41:33.371Z,0
2017-06-08T01:42:13.865Z,0
2017-06-08T01:42:54.355Z,0
2017-06-08T01:43:34.828Z,0
2017-06-08T01:44:15.372Z,0
2017-06-08T01:44:55.823Z,0
2017-06-08T01:45:36.303Z,0
2017-06-08T01:46:16.800Z,0
2017-06-08T01:46:57.276Z,0
2017-06-08T01:47:37.757Z,0
2017-06-08T01:48:18.229Z,0
2017-06-08T01:48:58.725Z,0
2017-06-08T01:49:39.210Z,0
2017-06-08T01:50:19.722Z,0
2017-06-08T01:51:00.195Z,0
2017-06-08T01:51:40.709Z,0
2017-06-08T01:52:21.167Z,0
2017-06-08T01:53:01.645Z,0
2017-06-08T01:53:42.127Z,0
2017-06-08T01:54:22.624Z,0
2017-06-08T01:55:03.120Z,0
2017-06-08T01:55:43.593Z,0
2017-06-08T01:56:24.136Z,0
2017-06-08T01:57:04.577Z,0
2017-06-08T01:57:45.069Z,0
2017-06-08T01:58:25.612Z,0
2017-06-08T01:59:06.097Z,0
2017-06-08T01:59:46.594Z,0
2017-06-08T02:00:27.077Z,0
2017-06-08T02:01:07.561Z,0
2017-06-08T02:01:48.035Z,0
2017-06-08T02:02:28.549Z,0
2017-06-08T02:03:09.035Z,0
2017-06-08T02:03:49.503Z,0
2017-06-08T02:04:30.005Z,0
2017-06-08T02:05:10.494Z,0
2017-06-08T02:05:50.995Z,0
2017-06-08T02:06:31.537Z,0
2017-06-08T02:07:11.952Z,0
2017-06-08T02:07:52.424Z,0
2017-06-08T02:08:32.903Z,0
2017-06-08T02:09:13.414Z,0
2017-06-08T02:09:53.883Z,0
2017-06-08T02:10:34.359Z,0
2017-06-08T02:11:14.836Z,0
2017-06-08T02:11:55.327Z,0
2017-06-08T02:12:35.824Z,0
2017-06-08T02:13:16.347Z,0
2017-06-08T02:13:56.855Z,0
2017-06-08T02:14:38.237Z,0
2017-06-08T02:15:17.787Z,0
2017-06-08T02:15:58.272Z,0
2017-06-08T02:16:38.793Z,0
2017-06-08T02:17:19.276Z,0
2017-06-08T02:17:59.741Z,0
2017-06-08T02:18:40.263Z,0
2017-06-08T02:19:20.723Z,0
2017-06-08T02:20:01.200Z,0
2017-06-08T02:20:41.686Z,0
2017-06-08T02:21:22.188Z,0
2017-06-08T02:22:02.652Z,0
2017-06-08T02:22:43.137Z,0
2017-06-08T02:23:23.623Z,0
2017-06-08T02:24:04.117Z,0
2017-06-08T02:24:44.621Z,0
2017-06-08T02:25:25.070Z,0
2017-06-08T02:27:58.144Z,0
2017-06-08T02:28:38.541Z,0
2017-06-08T02:29:19.037Z,0
2017-06-08T02:29:59.538Z,0
2017-06-08T02:30:40.045Z,0
2017-06-08T02:31:20.527Z,0
2017-06-08T02:32:00.989Z,0
2017-06-08T02:32:41.481Z,0
2017-06-08T02:33:21.969Z,0
2017-06-08T02:34:02.461Z,0
2017-06-08T02:34:42.959Z,0
2017-06-08T02:35:23.431Z,0
2017-06-08T02:36:03.932Z,0
2017-06-08T02:36:44.362Z,0
2017-06-08T02:37:24.851Z,0
2017-06-08T02:38:05.342Z,0
2017-06-08T02:38:45.837Z,0
2017-06-08T02:39:26.340Z,0
2017-06-08T02:40:06.820Z,0
2017-06-08T02:40:47.299Z,0
2017-06-08T02:41:27.778Z,0
2017-06-08T02:42:08.262Z,0
2017-06-08T02:42:48.751Z,0
2017-06-08T02:43:29.237Z,0
2017-06-08T02:44:09.772Z,0
2017-06-08T02:44:50.199Z,0
2017-06-08T02:45:30.690Z,0
2017-06-08T02:46:11.180Z,0
2017-06-08T02:46:51.686Z,4
2017-06-08T02:47:32.173Z,4
2017-06-08T02:48:12.646Z,4
2017-06-08T02:48:53.126Z,4
2017-06-08T02:49:33.618Z,4
2017-06-08T02:50:14.112Z,0
2017-06-08T02:50:54.597Z,4
2017-06-08T02:51:35.090Z,4
2017-06-08T02:52:15.587Z,4
2017-06-08T02:52:56.076Z,4
2017-06-08T02:53:36.569Z,8
2017-06-08T02:54:17.064Z,8
2017-06-08T02:54:57.553Z,4
2017-06-08T02:55:38.045Z,8
2017-06-08T02:56:18.537Z,8
2017-06-08T02:56:59.016Z,8
2017-06-08T02:57:39.489Z,8
2017-06-08T02:58:19.991Z,12
2017-06-08T02:59:00.472Z,12
2017-06-08T02:59:40.949Z,12
2017-06-08T03:00:21.443Z,16
2017-06-08T03:01:01.932Z,12
2017-06-08T03:01:42.412Z,16
2017-06-08T03:02:22.889Z,16
2017-06-08T03:03:03.388Z,16
2017-06-08T03:03:43.863Z,20
2017-06-08T03:04:24.330Z,20
2017-06-08T03:05:04.813Z,24
2017-06-08T03:05:45.279Z,24
2017-06-08T03:06:25.757Z,28
2017-06-08T03:07:06.241Z,32
2017-06-08T03:07:46.735Z,36
2017-06-08T03:08:27.231Z,36
2017-06-08T03:09:07.688Z,40
2017-06-08T03:09:48.181Z,40
2017-06-08T03:10:28.679Z,44
2017-06-08T03:11:09.163Z,48
2017-06-08T03:11:49.636Z,52
2017-06-08T03:12:30.137Z,56
2017-06-08T03:13:10.633Z,60
2017-06-08T03:13:51.094Z,64
2017-06-08T03:14:31.568Z,68
2017-06-08T03:15:12.056Z,76
2017-06-08T03:15:52.547Z,80
2017-06-08T03:16:33.036Z,84
2017-06-08T03:17:13.512Z,88
2017-06-08T03:17:54.005Z,96
2017-06-08T03:18:34.496Z,100
2017-06-08T03:19:14.981Z,108
2017-06-08T03:19:55.480Z,116
2017-06-08T03:20:35.943Z,124
2017-06-08T03:21:16.427Z,132
2017-06-08T03:21:56.910Z,140
2017-06-08T03:22:37.429Z,148
2017-06-08T03:23:17.888Z,156
2017-06-08T03:23:58.363Z,160
2017-06-08T03:24:38.842Z,168
2017-06-08T03:25:19.326Z,176
2017-06-08T03:25:59.843Z,184
2017-06-08T03:26:40.334Z,188
2017-06-08T03:27:20.820Z,196
2017-06-08T03:28:01.311Z,204
2017-06-08T03:28:41.780Z,216
2017-06-08T03:29:22.263Z,224
2017-06-08T03:30:02.739Z,232
2017-06-08T03:30:43.238Z,244
2017-06-08T03:31:23.712Z,256
2017-06-08T03:32:04.193Z,264
2017-06-08T03:32:44.694Z,280
2017-06-08T03:33:25.173Z,288
2017-06-08T03:34:05.648Z,304
2017-06-08T03:34:46.133Z,316
2017-06-08T03:35:26.609Z,328
2017-06-08T03:36:07.110Z,344
2017-06-08T03:36:47.591Z,360
2017-06-08T03:37:28.071Z,372
2017-06-08T03:38:08.567Z,392
2017-06-08T03:38:49.037Z,404
2017-06-08T03:39:29.518Z,420
2017-06-08T03:40:10.001Z,436
2017-06-08T03:40:50.488Z,452
2017-06-08T03:41:30.963Z,468
2017-06-08T03:42:11.458Z,484
2017-06-08T03:42:51.932Z,500
2017-06-08T03:43:32.405Z,520
2017-06-08T03:44:12.889Z,544
2017-06-08T03:44:53.377Z,564
2017-06-08T03:45:33.857Z,584
2017-06-08T03:46:14.340Z,608
2017-06-08T03:46:54.835Z,632
2017-06-08T03:47:35.326Z,656
2017-06-08T03:48:15.802Z,676
2017-06-08T03:48:56.308Z,700
2017-06-08T03:49:36.774Z,728
2017-06-08T03:50:17.295Z,756
2017-06-08T03:50:57.743Z,784
2017-06-08T03:51:38.205Z,816
2017-06-08T03:52:18.701Z,844
2017-06-08T03:52:59.176Z,872
2017-06-08T03:53:39.663Z,900
2017-06-08T03:54:20.164Z,932
2017-06-08T03:55:00.664Z,964
2017-06-08T03:55:41.121Z,1000
2017-06-08T03:56:21.595Z,1032
2017-06-08T03:57:02.077Z,1068
2017-06-08T03:57:42.570Z,1104
2017-06-08T03:58:23.037Z,1132
2017-06-08T03:59:03.514Z,1160
2017-06-08T03:59:44.003Z,1188
2017-06-08T04:00:24.494Z,1212
2017-06-08T04:01:04.991Z,1244
2017-06-08T04:01:45.471Z,1268
2017-06-08T04:02:25.946Z,1292
2017-06-08T04:03:06.447Z,1312
2017-06-08T04:03:46.928Z,1328
2017-06-08T04:04:27.415Z,1336
2017-06-08T04:05:07.907Z,1368
2017-06-08T04:05:48.397Z,1412
2017-06-08T04:06:28.883Z,1452
2017-06-08T04:07:09.383Z,1488
2017-06-08T04:07:49.873Z,1528
2017-06-08T04:08:30.356Z,1564
2017-06-08T04:09:10.842Z,1600
2017-06-08T04:09:51.364Z,1632
2017-06-08T04:10:31.818Z,1664
2017-06-08T04:11:12.306Z,1692
2017-06-08T04:11:52.784Z,1724
2017-06-08T04:12:33.305Z,1760
2017-06-08T04:13:13.766Z,1796
2017-06-08T04:13:54.243Z,1828
2017-06-08T04:14:34.734Z,1864
2017-06-08T04:15:15.221Z,1896
2017-06-08T04:15:55.710Z,1932
2017-06-08T04:16:36.232Z,1972
2017-06-08T04:17:16.700Z,2004
2017-06-08T04:17:57.187Z,2032
2017-06-08T04:18:37.685Z,2064
2017-06-08T04:19:18.176Z,2092
2017-06-08T04:19:58.723Z,2124
2017-06-08T04:20:39.133Z,2160
2017-06-08T04:21:19.605Z,2204
2017-06-08T04:22:00.063Z,2252
2017-06-08T04:22:40.564Z,2300
2017-06-08T04:23:21.032Z,2360
2017-06-08T04:24:01.528Z,2424
2017-06-08T04:24:42.008Z,2496
2017-06-08T04:25:22.497Z,2556
2017-06-08T04:26:02.986Z,2592
2017-06-08T04:26:43.458Z,2608
2017-06-08T04:27:23.953Z,2604
2017-06-08T04:28:04.444Z,2600
2017-06-08T04:28:44.935Z,2604
2017-06-08T04:29:25.396Z,2628
2017-06-08T04:30:05.870Z,2684
2017-06-08T04:30:46.364Z,2784
2017-06-08T04:31:26.836Z,2912
2017-06-08T04:32:07.316Z,3064
2017-06-08T04:32:47.819Z,3392
2017-06-08T04:33:28.379Z,3948
2017-06-08T04:34:08.898Z,4640
2017-06-08T04:34:49.426Z,5168
2017-06-08T04:35:29.891Z,5448
2017-06-08T04:36:10.375Z,5596
2017-06-08T04:36:50.852Z,5640
2017-06-08T04:37:32.172Z,5664
2017-06-08T04:38:12.645Z,5664
2017-06-08T04:38:53.118Z,5636
2017-06-08T04:39:33.602Z,5612
2017-06-08T04:40:14.091Z,5576
2017-06-08T04:40:54.589Z,5520
2017-06-08T04:41:35.054Z,5484
2017-06-08T04:42:15.538Z,5628
2017-06-08T04:42:56.044Z,5532
2017-06-08T04:43:36.531Z,5300
2017-06-08T04:44:17.003Z,5048
2017-06-08T04:44:57.506Z,4480
2017-06-08T04:45:37.962Z,5180
2017-06-08T04:46:18.457Z,5504
2017-06-08T04:46:58.938Z,6408
2017-06-08T04:47:39.438Z,6548
2017-06-08T04:48:19.933Z,5716
2017-06-08T04:49:00.428Z,5912
2017-06-08T04:49:40.915Z,5688
2017-06-08T04:50:21.411Z,5108
2017-06-08T04:51:01.904Z,4748
2017-06-08T04:51:42.381Z,4796
2017-06-08T04:52:22.888Z,4892
2017-06-08T04:53:03.410Z,4616
2017-06-08T04:53:44.807Z,4620
2017-06-08T04:54:25.296Z,4980
2017-06-08T04:55:05.771Z,4988
2017-06-08T04:55:46.269Z,5232
2017-06-08T04:56:26.762Z,5496
2017-06-08T04:57:07.257Z,5644
2017-06-08T04:57:47.759Z,6156
2017-06-08T04:58:28.241Z,6788
2017-06-08T04:59:08.735Z,7028
2017-06-08T04:59:49.228Z,7148
2017-06-08T05:00:29.718Z,7496
2017-06-08T05:01:10.211Z,7884
2017-06-08T05:01:50.702Z,7540
2017-06-08T05:02:31.200Z,7664
2017-06-08T05:03:11.691Z,7492
2017-06-08T05:03:52.186Z,7700
2017-06-08T05:04:32.679Z,7396
2017-06-08T05:05:13.166Z,6768
2017-06-08T05:05:53.661Z,6316
2017-06-08T05:06:34.151Z,6192
2017-06-08T05:07:14.643Z,6196
2017-06-08T05:07:55.138Z,6252
2017-06-08T05:08:35.649Z,6256
2017-06-08T05:09:16.143Z,6308
2017-06-08T05:09:56.644Z,6320
2017-06-08T05:10:37.155Z,6264
2017-06-08T05:11:17.669Z,6224
2017-06-08T05:11:58.158Z,6344
2017-06-08T05:12:38.640Z,6504
2017-06-08T05:13:19.140Z,6712
2017-06-08T05:13:59.636Z,6768
2017-06-08T05:14:40.130Z,6968
2017-06-08T05:15:20.621Z,6944
2017-06-08T05:16:01.124Z,7040
2017-06-08T05:16:41.614Z,7248
2017-06-08T05:17:22.098Z,7560
2017-06-08T05:18:02.581Z,7880
2017-06-08T05:18:43.074Z,8300
2017-06-08T05:19:23.564Z,9904
2017-06-08T05:20:04.051Z,9800
2017-06-08T05:20:44.532Z,9508
2017-06-08T05:21:25.033Z,10060
2017-06-08T05:22:05.530Z,10080
2017-06-08T05:22:46.004Z,9540
2017-06-08T05:23:26.502Z,10808
2017-06-08T05:24:06.988Z,9480
2017-06-08T05:24:47.479Z,9416
2017-06-08T05:25:27.971Z,8224
2017-06-08T05:26:08.465Z,7752
2017-06-08T05:26:48.957Z,7468
2017-06-08T05:27:29.454Z,7376
2017-06-08T05:28:09.957Z,7232
2017-06-08T05:28:50.453Z,7128
2017-06-08T05:29:30.960Z,7000
2017-06-08T05:30:11.457Z,6876
2017-06-08T05:30:51.959Z,6728
2017-06-08T05:31:32.447Z,6636
2017-06-08T05:32:12.947Z,6572
2017-06-08T05:32:53.445Z,6568
2017-06-08T05:33:33.936Z,6692
2017-06-08T05:34:14.429Z,6804
2017-06-08T05:34:54.922Z,6936
2017-06-08T05:35:35.419Z,7092
2017-06-08T05:36:15.941Z,7152
2017-06-08T05:36:56.407Z,7140
2017-06-08T05:37:36.902Z,7216
2017-06-08T05:38:17.386Z,7252
2017-06-08T05:38:57.888Z,7320
2017-06-08T05:39:38.371Z,7348
2017-06-08T05:40:18.874Z,7396
2017-06-08T05:40:59.367Z,7444
2017-06-08T05:41:39.844Z,7376
2017-06-08T05:42:20.348Z,7348
2017-06-08T05:43:00.847Z,7344
2017-06-08T05:43:41.336Z,7436
2017-06-08T05:44:21.819Z,7604
2017-06-08T05:45:02.318Z,7748
2017-06-08T05:45:42.812Z,7896
2017-06-08T05:46:23.318Z,8096
2017-06-08T05:47:03.819Z,8240
2017-06-08T05:47:44.292Z,8596
2017-06-08T05:48:24.799Z,8752
2017-06-08T05:49:05.288Z,9020
2017-06-08T05:49:45.772Z,9208
2017-06-08T05:50:26.267Z,9424
2017-06-08T05:51:06.753Z,9716
2017-06-08T05:51:47.245Z,10004
2017-06-08T05:52:27.732Z,10100
2017-06-08T05:53:08.241Z,10456
2017-06-08T05:53:48.733Z,10908
2017-06-08T05:54:29.226Z,10488
2017-06-08T05:55:09.708Z,10688
2017-06-08T05:55:50.185Z,10652
2017-06-08T05:56:30.666Z,10800
2017-06-08T05:57:11.147Z,11048
2017-06-08T05:57:51.643Z,11152
2017-06-08T05:58:32.123Z,11336
2017-06-08T05:59:12.632Z,11744
2017-06-08T05:59:53.118Z,12032
2017-06-08T06:00:33.611Z,13000
2017-06-08T06:01:14.107Z,12156
2017-06-08T06:01:54.596Z,12824
2017-06-08T06:02:35.077Z,13988
2017-06-08T06:04:32.692Z,11800
2017-06-08T06:05:13.210Z,12164
2017-06-08T06:05:53.669Z,12520
2017-06-08T06:06:34.184Z,12968
2017-06-08T06:07:14.651Z,14764
2017-06-08T06:07:55.151Z,15272
2017-06-08T06:08:35.626Z,14312
2017-06-08T06:09:16.142Z,14988
2017-06-08T06:09:56.619Z,14308
2017-06-08T06:10:37.132Z,15400
2017-06-08T06:11:17.633Z,14468
2017-06-08T06:11:58.113Z,15300
2017-06-08T06:12:38.607Z,14668
2017-06-08T06:13:19.106Z,13816
2017-06-08T06:13:59.601Z,13428
2017-06-08T06:14:40.103Z,13140
2017-06-08T06:15:20.601Z,13668
2017-06-08T06:16:01.068Z,16768
2017-06-08T06:16:41.554Z,13552
2017-06-08T06:17:22.060Z,13036
2017-06-08T06:18:02.555Z,13096
2017-06-08T06:18:43.076Z,13444
2017-06-08T06:19:24.202Z,12928
2017-06-08T06:20:04.704Z,14204
2017-06-08T06:20:45.214Z,13732
2017-06-08T06:21:25.723Z,13844
2017-06-08T06:22:06.194Z,13824
2017-06-08T06:22:46.689Z,12592
2017-06-08T06:23:27.182Z,15168
2017-06-08T06:24:07.670Z,12912
2017-06-08T06:24:48.180Z,13724
2017-06-08T06:25:28.688Z,13524
2017-06-08T06:26:09.202Z,13616
2017-06-08T06:26:49.705Z,15216
2017-06-08T06:27:30.226Z,16992
2017-06-08T06:28:10.744Z,16736
2017-06-08T06:28:51.232Z,14740
2017-06-08T06:29:31.716Z,21696
2017-06-08T06:30:12.202Z,16928
2017-06-08T06:30:52.697Z,14284
2017-06-08T06:31:33.184Z,25600
2017-06-08T06:32:13.686Z,28544
2017-06-08T06:32:54.172Z,16640
2017-06-08T06:33:34.668Z,13880
2017-06-08T06:34:15.177Z,14000
2017-06-08T06:34:56.628Z,16240
2017-06-08T06:35:37.141Z,20096
2017-06-08T06:36:17.643Z,26688
2017-06-08T06:36:58.149Z,26272
2017-06-08T06:37:38.646Z,23296
2017-06-08T06:38:19.135Z,23712
2017-06-08T06:38:59.633Z,29664
2017-06-08T06:39:40.132Z,28128
2017-06-08T06:40:20.750Z,31136
2017-06-08T06:41:01.240Z,21248
2017-06-08T06:41:41.738Z,33728
2017-06-08T06:42:22.924Z,49888
2017-06-08T06:43:03.406Z,36512
2017-06-08T06:43:43.908Z,43488
2017-06-08T06:44:24.403Z,53280
2017-06-08T06:45:04.948Z,49184
2017-06-08T06:45:45.443Z,41472
2017-06-08T06:46:25.999Z,35808
2017-06-08T06:47:06.489Z,32448
2017-06-08T06:47:46.989Z,31136
2017-06-08T06:48:27.481Z,30912
2017-06-08T06:49:07.975Z,30208
2017-06-08T06:49:48.499Z,32224
2017-06-08T06:50:28.993Z,32960
2017-06-08T06:51:09.485Z,39328
2017-06-08T06:51:49.970Z,41216
2017-06-08T06:52:30.477Z,41600
2017-06-08T06:53:10.993Z,43264
2017-06-08T06:53:51.491Z,44416
2017-06-08T06:54:31.975Z,43648
2017-06-08T06:55:12.470Z,37248
2017-06-08T06:55:52.962Z,39648
2017-06-08T06:56:33.467Z,41440
2017-06-08T06:57:13.953Z,43104
2017-06-08T06:57:54.441Z,47104
2017-06-08T06:58:34.933Z,46528
2017-06-08T06:59:15.462Z,43552
2017-06-08T06:59:55.962Z,48288
2017-06-08T07:00:36.449Z,46944
2017-06-08T07:01:16.951Z,48544
2017-06-08T07:01:57.448Z,48544
2017-06-08T07:02:38.949Z,49312
2017-06-08T07:03:19.446Z,48896
2017-06-08T07:03:59.938Z,48000
2017-06-08T07:04:40.428Z,48768
2017-06-08T07:05:20.924Z,49760
2017-06-08T07:06:01.432Z,48384
2017-06-08T07:06:41.909Z,48960
2017-06-08T07:07:22.414Z,52064
2017-06-08T07:08:02.883Z,52096
2017-06-08T07:08:43.431Z,34688
2017-06-08T07:09:23.903Z,49056
2017-06-08T07:10:04.392Z,45376
2017-06-08T07:10:44.873Z,48448
2017-06-08T07:11:25.392Z,46464
2017-06-08T07:12:05.863Z,47072
2017-06-08T07:12:46.334Z,46144
2017-06-08T07:15:14.398Z,42656
2017-06-08T07:15:54.793Z,38720
2017-06-08T07:16:35.257Z,41792
2017-06-08T07:17:15.716Z,39104
2017-06-08T07:17:56.244Z,41888
2017-06-08T07:18:36.785Z,41632
2017-06-08T07:19:17.195Z,40736
2017-06-08T07:19:57.668Z,43936
2017-06-08T07:20:38.132Z,39296
2017-06-08T07:21:18.595Z,34496
2017-06-08T07:21:59.063Z,30560
2017-06-08T07:23:56.721Z,21440
2017-06-08T07:24:37.192Z,19712
2017-06-08T07:25:17.752Z,18848
2017-06-08T07:25:58.310Z,18336
2017-06-08T07:26:38.762Z,17984
2017-06-08T07:27:19.256Z,17344
2017-06-08T07:27:59.738Z,17216
2017-06-08T07:28:40.232Z,17248
2017-06-08T07:29:20.820Z,16468
2017-06-08T07:31:53.876Z,17152
2017-06-08T07:32:34.390Z,17280
2017-06-08T07:33:14.897Z,17536
2017-06-08T07:33:55.394Z,17888
2017-06-08T07:34:35.893Z,17408
2017-06-08T07:35:16.388Z,17344
2017-06-08T07:35:56.868Z,16616
2017-06-08T07:36:37.343Z,17472
2017-06-08T07:37:17.844Z,17728
2017-06-08T07:37:58.341Z,17600
2017-06-08T07:38:38.837Z,17632
2017-06-08T07:39:19.336Z,17376
2017-06-08T07:39:59.825Z,17536
2017-06-08T07:40:40.357Z,17664
2017-06-08T07:41:20.845Z,17952
2017-06-08T07:42:01.314Z,16896
2017-06-08T07:42:41.824Z,17312
2017-06-08T07:43:22.324Z,16816
2017-06-08T07:44:02.807Z,16756
2017-06-08T07:44:43.337Z,16704
2017-06-08T07:45:23.823Z,17344
2017-06-08T07:47:36.559Z,17312
2017-06-08T07:48:17.104Z,16976
2017-06-08T07:48:57.604Z,16276
2017-06-08T07:49:38.083Z,16580
2017-06-08T07:50:20.180Z,16580
2017-06-08T07:51:01.479Z,16828
2017-06-08T07:51:42.304Z,17008
2017-06-08T07:53:39.992Z,17536
2017-06-08T07:54:20.450Z,17632
2017-06-08T07:56:48.485Z,17792
2017-06-08T07:57:29.046Z,17760
2017-06-08T07:58:09.536Z,18176
2017-06-08T07:58:50.087Z,18656
2017-06-08T07:59:30.498Z,18912
2017-06-08T08:00:10.974Z,19424
2017-06-08T08:00:51.555Z,19968
2017-06-08T08:01:32.044Z,21312
2017-06-08T08:02:12.516Z,24512
2017-06-08T08:02:53.035Z,30272
2017-06-08T08:03:33.551Z,38304
2017-06-08T08:04:14.011Z,46464
2017-06-08T08:04:54.581Z,51296
2017-06-08T08:05:35.117Z,53152
2017-06-08T08:06:15.606Z,54560
2017-06-08T08:06:56.065Z,59200
2017-06-08T08:07:36.635Z,63360
2017-06-08T08:08:17.127Z,66848
2017-06-08T08:08:57.623Z,67296
2017-06-08T08:09:38.250Z,70752
2017-06-08T08:10:18.747Z,72864
2017-06-08T08:10:59.249Z,72000
2017-06-08T08:11:39.801Z,69440
2017-06-08T08:12:20.208Z,67872
2017-06-08T08:13:00.712Z,71008
2017-06-08T08:13:41.221Z,70176
2017-06-08T08:14:21.714Z,69056
2017-06-08T08:15:02.216Z,69600
2017-06-08T08:15:42.716Z,60768
2017-06-08T08:16:23.207Z,47392
2017-06-08T08:17:03.694Z,31584
2017-06-08T08:17:44.231Z,22592
2017-06-08T08:18:24.726Z,21440
2017-06-08T08:19:05.213Z,20032
2017-06-08T08:19:45.839Z,21760
2017-06-08T08:20:26.328Z,21824
2017-06-08T08:21:06.828Z,21824
2017-06-08T08:21:47.311Z,21664
2017-06-08T08:22:27.798Z,21696
2017-06-08T08:23:08.313Z,22336
2017-06-08T08:23:48.840Z,22592
2017-06-08T08:24:29.348Z,22944
2017-06-08T08:25:09.844Z,23328
2017-06-08T08:25:50.356Z,23872
2017-06-08T08:26:30.865Z,25760
2017-06-08T08:27:11.360Z,30656
2017-06-08T08:27:51.851Z,47488
2017-06-08T08:28:32.382Z,65568
2017-06-08T08:31:00.393Z,79552
2017-06-08T08:31:40.881Z,79776
2017-06-08T08:32:21.455Z,80064
2017-06-08T08:33:01.937Z,80736
2017-06-08T08:33:42.415Z,81568
2017-06-08T08:34:22.929Z,82240
2017-06-08T08:35:03.401Z,83200
2017-06-08T08:35:43.897Z,87232
2017-06-08T08:36:24.373Z,85056
2017-06-08T08:37:04.887Z,79072
2017-06-08T08:37:45.378Z,80032
2017-06-08T08:38:25.859Z,79584
2017-06-08T08:39:06.365Z,77504
2017-06-08T08:39:46.958Z,71776
2017-06-08T08:40:27.428Z,71456
2017-06-08T08:41:07.978Z,75584
2017-06-08T08:41:48.459Z,74976
2017-06-08T08:42:29.041Z,82208
2017-06-08T08:43:09.551Z,80256
2017-06-08T08:43:50.034Z,84672
2017-06-08T08:44:30.578Z,83232
2017-06-08T08:45:11.066Z,80448
2017-06-08T08:45:51.575Z,78720
2017-06-08T08:46:32.113Z,79104
2017-06-08T08:47:12.626Z,68320
2017-06-08T08:47:53.116Z,52800
2017-06-08T08:48:33.646Z,38848
2017-06-08T08:49:14.150Z,35264
2017-06-08T08:49:54.706Z,34880
2017-06-08T08:50:35.135Z,34272
2017-06-08T08:51:15.660Z,34336
2017-06-08T08:51:56.146Z,34272
2017-06-08T08:52:36.626Z,34752
2017-06-08T08:53:17.139Z,34720
2017-06-08T08:53:57.683Z,35040
2017-06-08T08:54:38.188Z,35040
2017-06-08T08:55:18.675Z,33856
2017-06-08T08:55:59.178Z,35872
2017-06-08T08:56:39.653Z,37760
2017-06-08T08:57:20.166Z,40064
2017-06-08T08:58:00.672Z,41248
2017-06-08T08:58:41.207Z,45728
2017-06-08T08:59:21.670Z,61120
2017-06-08T09:00:02.175Z,79584
2017-06-08T09:00:42.687Z,89984
2017-06-08T09:01:23.173Z,92768
2017-06-08T09:02:03.664Z,96672
2017-06-08T09:02:44.164Z,97504
2017-06-08T09:03:24.662Z,98720
2017-06-08T09:04:05.157Z,93728
2017-06-08T09:04:45.651Z,86592
2017-06-08T09:05:26.216Z,85984
2017-06-08T09:06:06.695Z,85024
2017-06-08T09:06:47.218Z,88064
2017-06-08T09:07:27.742Z,90944
2017-06-08T09:08:08.247Z,94496
2017-06-08T09:08:48.735Z,94048
2017-06-08T09:09:29.215Z,95072
2017-06-08T09:10:09.724Z,98976
2017-06-08T09:10:50.214Z,97504
2017-06-08T09:11:30.744Z,95328
2017-06-08T09:12:11.234Z,97088
2017-06-08T09:12:51.726Z,97504
2017-06-08T09:13:32.241Z,97952
2017-06-08T09:14:12.737Z,96096
2017-06-08T09:14:53.281Z,93504
2017-06-08T09:15:33.821Z,94368
2017-06-08T09:16:15.235Z,94368
2017-06-08T09:16:55.752Z,94432
2017-06-08T09:17:36.251Z,92032
2017-06-08T09:18:16.813Z,95616
2017-06-08T09:18:57.297Z,94016
2017-06-08T09:19:37.782Z,90048
2017-06-08T09:20:18.242Z,84352
2017-06-08T09:20:58.712Z,80032
2017-06-08T09:21:39.197Z,79232
2017-06-08T09:22:19.657Z,78112
2017-06-08T09:23:00.129Z,77536
2017-06-08T09:23:40.626Z,75072
2017-06-08T09:24:21.077Z,78720
2017-06-08T09:25:01.586Z,79744
2017-06-08T09:25:42.087Z,73632
2017-06-08T09:26:22.573Z,76768
2017-06-08T09:27:03.070Z,80768
2017-06-08T09:27:43.573Z,80896
2017-06-08T09:28:24.174Z,80608